createdAt,value
2018-10-11T09:48:15.512Z,23.44
2018-10-11T09:49:15.112Z,23.60
2018-10-11T09:50:15.093Z,23.79
2018-10-11T09:51:15.093Z,24.13
2018-10-11T09:52:15.078Z,24.29
2018-10-11T09:53:15.090Z,24.45
2018-10-11T09:54:15.270Z,24.82
2018-10-11T09:55:15.040Z,24.96
2018-10-11T09:56:15.023Z,25.36
2018-10-11T09:57:15.160Z,25.59
2018-10-11T09:58:15.016Z,25.82
2018-10-11T09:59:14.989Z,25.98
2018-10-11T10:00:15.674Z,26.05
2018-10-11T10:01:14.972Z,26.20
2018-10-11T10:02:14.963Z,26.41
2018-10-11T10:03:14.963Z,26.48
2018-10-11T10:04:14.940Z,26.46
2018-10-11T10:05:14.934Z,26.63
2018-10-11T10:06:15.141Z,26.61
2018-10-11T10:07:14.908Z,26.68
2018-10-11T10:08:14.898Z,26.67
2018-10-11T10:09:14.883Z,26.73
2018-10-11T10:10:14.870Z,26.78
2018-10-11T10:11:14.868Z,26.78
2018-10-11T10:12:15.363Z,26.73
2018-10-11T10:13:14.837Z,26.85
2018-10-11T10:14:14.823Z,26.80
2018-10-11T10:15:14.816Z,26.83
2018-10-11T10:16:14.806Z,26.86
2018-10-11T10:17:14.790Z,26.82
2018-10-11T10:18:15.007Z,26.89
2018-10-11T10:19:14.768Z,26.83
2018-10-11T10:20:14.765Z,26.86
2018-10-11T10:21:14.825Z,26.89
2018-10-11T10:22:14.727Z,26.90
2018-10-11T10:23:23.991Z,26.83
2018-10-11T10:24:14.715Z,26.88
2018-10-11T10:25:14.699Z,26.94
2018-10-11T10:26:14.681Z,26.85
2018-10-11T10:27:14.803Z,26.86
2018-10-11T10:28:14.666Z,26.85
2018-10-11T10:29:14.873Z,26.88
2018-10-11T10:30:14.645Z,26.86
2018-10-11T10:31:14.638Z,26.93
2018-10-11T10:32:21.927Z,26.94
2018-10-11T10:33:14.614Z,26.93
2018-10-11T10:34:14.606Z,26.97
2018-10-11T10:35:14.802Z,27.01
2018-10-11T10:36:14.577Z,26.97
2018-10-11T10:37:14.568Z,26.94
2018-10-11T10:38:14.554Z,26.97
2018-10-11T10:39:14.545Z,26.98
2018-10-11T10:40:14.558Z,27.01
2018-10-11T10:41:14.730Z,26.89
2018-10-11T10:42:14.507Z,27.01
2018-10-11T10:43:14.493Z,27.00
2018-10-11T10:44:14.492Z,26.93
2018-10-11T10:45:14.479Z,26.93
2018-10-11T10:46:14.466Z,26.93
2018-10-11T10:47:22.841Z,27.00
2018-10-11T10:48:14.447Z,27.01
2018-10-11T10:49:14.447Z,26.89
2018-10-11T10:50:14.421Z,26.98
2018-10-11T10:51:14.414Z,27.01
2018-10-11T10:52:14.402Z,27.03
2018-10-11T10:53:14.614Z,27.01
2018-10-11T10:54:14.412Z,26.98
2018-10-11T10:55:14.361Z,26.90
2018-10-11T10:56:14.346Z,27.03
2018-10-11T10:57:14.335Z,27.04
2018-10-11T10:58:14.327Z,27.01
2018-10-11T10:59:14.523Z,27.03
2018-10-11T11:00:14.310Z,26.97
2018-10-11T11:01:14.301Z,26.94
2018-10-11T11:02:14.285Z,26.97
2018-10-11T11:03:14.282Z,26.98
2018-10-11T11:04:14.262Z,27.03
2018-10-11T11:05:14.557Z,27.07
2018-10-11T11:06:14.248Z,27.13
2018-10-11T11:07:14.284Z,27.13
2018-10-11T11:08:14.218Z,27.12
2018-10-11T11:09:14.202Z,27.12
2018-10-11T11:10:14.192Z,27.15
2018-10-11T11:11:14.406Z,27.07
2018-10-11T11:12:14.174Z,27.22
2018-10-11T11:13:14.244Z,27.16
2018-10-11T11:14:14.154Z,27.19
2018-10-11T11:15:14.232Z,27.19
2018-10-11T11:16:14.131Z,27.22
2018-10-11T11:17:22.958Z,27.20
2018-10-11T11:18:14.169Z,27.20
2018-10-11T11:19:14.109Z,27.23
2018-10-11T11:20:14.096Z,27.26
2018-10-11T11:21:14.085Z,27.25
2018-10-11T11:22:14.063Z,27.34
2018-10-11T11:23:14.265Z,27.25
2018-10-11T11:24:14.050Z,27.34
2018-10-11T11:25:14.176Z,27.37
2018-10-11T11:26:14.119Z,27.31
2018-10-11T11:27:14.175Z,27.35
2018-10-11T11:28:13.995Z,27.35
2018-10-11T11:29:14.351Z,27.37
2018-10-11T11:30:13.990Z,27.37
2018-10-11T11:31:14.067Z,27.37
2018-10-11T11:32:13.958Z,27.38
2018-10-11T11:33:15.103Z,27.40
2018-10-11T11:34:14.358Z,27.32
2018-10-11T11:35:14.183Z,27.31
2018-10-11T11:36:13.909Z,27.41
2018-10-11T12:45:03.925Z,26.19
2018-10-11T12:46:02.973Z,26.10
2018-10-11T12:47:02.967Z,26.16
2018-10-11T12:48:02.951Z,26.03
2018-10-11T12:49:02.941Z,26.05
2018-10-11T12:50:02.972Z,25.98
2018-10-11T12:51:04.141Z,25.88
2018-10-11T12:52:02.920Z,25.90
2018-10-11T12:53:02.896Z,25.88
2018-10-11T12:54:02.891Z,25.86
2018-10-11T13:00:17.723Z,26.05
2018-10-11T13:01:20.467Z,26.04
2018-10-11T13:02:17.490Z,26.12
2018-10-11T13:03:17.569Z,26.27
2018-10-11T13:04:17.459Z,26.42
2018-10-11T13:05:17.457Z,26.56
2018-10-11T13:06:17.655Z,26.61
2018-10-11T13:07:17.466Z,26.73
2018-10-11T13:08:17.444Z,26.85
2018-10-11T13:09:17.443Z,26.83
2018-10-11T13:10:17.432Z,26.95
2018-10-11T13:11:17.391Z,27.03
2018-10-11T13:12:25.352Z,27.08
2018-10-11T13:13:17.374Z,27.17
2018-10-11T13:14:17.349Z,27.25
2018-10-11T13:15:17.349Z,27.31
2018-10-11T13:16:17.331Z,27.34
2018-10-11T13:17:17.321Z,27.38
2018-10-11T13:18:17.655Z,27.35
2018-10-11T13:19:17.313Z,27.42
2018-10-11T13:20:17.323Z,27.45
2018-10-11T13:21:17.290Z,27.53
2018-10-11T13:22:17.293Z,27.54
2018-10-11T13:23:18.710Z,27.53
2018-10-11T13:24:18.447Z,27.52
2018-10-11T13:25:24.458Z,27.49
2018-10-11T13:26:17.220Z,27.49
2018-10-11T13:27:17.210Z,27.52
2018-10-11T13:28:17.194Z,27.47
2018-10-11T13:29:17.185Z,27.57
2018-10-11T13:30:17.387Z,27.57
2018-10-11T13:31:17.160Z,27.58
2018-10-11T13:32:17.155Z,27.57
2018-10-11T13:33:17.156Z,27.58
2018-10-11T13:34:17.135Z,27.57
2018-10-11T13:35:17.240Z,27.53
2018-10-11T13:36:17.519Z,27.58
2018-10-11T13:37:24.264Z,27.54
2018-10-11T13:38:17.093Z,27.60
2018-10-11T13:39:17.070Z,27.63
2018-10-11T13:40:17.067Z,27.63
2018-10-11T13:41:17.076Z,27.58
2018-10-11T13:42:17.271Z,27.60
2018-10-11T13:43:17.026Z,27.57
2018-10-11T13:44:17.035Z,27.54
2018-10-11T13:45:17.026Z,27.58
2018-10-11T13:46:16.997Z,27.57
2018-10-11T13:47:17.028Z,27.57
2018-10-11T13:48:17.202Z,27.57
2018-10-11T13:49:16.971Z,27.53
2018-10-11T13:50:24.171Z,27.52
2018-10-11T13:51:16.946Z,27.54
2018-10-11T13:52:20.557Z,27.57
2018-10-11T13:53:21.323Z,27.52
2018-10-11T13:54:18.729Z,27.52
2018-10-11T13:55:16.903Z,27.45
2018-10-11T13:56:16.887Z,27.49
2018-10-11T13:57:16.884Z,27.50
2018-10-11T13:58:16.873Z,27.50
2018-10-11T13:59:16.855Z,27.49
2018-10-11T14:00:17.613Z,27.37
2018-10-11T14:01:16.849Z,27.54
2018-10-11T14:02:16.825Z,27.42
2018-10-11T14:03:24.103Z,27.50
2018-10-11T14:04:16.806Z,27.42
2018-10-11T14:05:16.794Z,27.40
2018-10-11T14:06:17.009Z,27.50
2018-10-11T14:07:16.775Z,27.44
2018-10-11T14:08:16.756Z,27.45
2018-10-11T14:09:16.746Z,27.35
2018-10-11T14:10:16.732Z,27.37
2018-10-11T14:11:16.733Z,27.42
2018-10-11T14:12:17.352Z,27.32
2018-10-11T14:13:19.829Z,27.41
2018-10-11T14:14:16.692Z,27.38
2018-10-11T14:15:16.699Z,27.40
2018-10-11T14:16:23.873Z,27.41
2018-10-11T14:17:16.657Z,27.38
2018-10-11T14:18:17.126Z,27.31
2018-10-11T14:19:16.633Z,27.35
2018-10-11T14:20:16.625Z,27.37
2018-10-11T14:21:16.616Z,27.37
2018-10-11T14:22:16.625Z,27.35
2018-10-11T14:23:16.673Z,27.34
2018-10-11T14:24:16.951Z,27.41
2018-10-11T14:25:16.586Z,27.35
2018-10-11T14:26:16.556Z,27.35
2018-10-11T14:27:16.549Z,27.32
2018-10-11T14:28:16.548Z,27.34
2018-10-11T14:29:16.535Z,27.35
2018-10-11T14:30:16.736Z,27.32
2018-10-11T14:31:16.506Z,27.34
2018-10-11T14:32:16.494Z,27.31
2018-10-11T14:33:16.509Z,27.26
2018-10-11T14:34:16.487Z,27.34
2018-10-11T14:35:16.461Z,27.32
2018-10-11T14:36:16.733Z,27.35
2018-10-11T14:37:16.557Z,27.34
2018-10-11T14:38:16.462Z,27.25
2018-10-11T14:39:16.432Z,27.26
2018-10-11T14:40:16.407Z,27.27
2018-10-11T14:41:16.394Z,27.25
2018-10-11T14:42:16.810Z,27.26
2018-10-11T14:43:16.401Z,27.22
2018-10-11T14:44:16.361Z,27.25
2018-10-11T14:45:16.346Z,27.26
2018-10-11T14:46:16.375Z,27.19
2018-10-11T14:47:16.346Z,27.22
2018-10-11T14:48:17.306Z,27.26
2018-10-11T14:49:16.310Z,27.19
2018-10-11T14:50:16.319Z,27.23
2018-10-11T14:51:16.377Z,27.10
2018-10-11T14:52:16.274Z,27.13
2018-10-11T14:53:16.255Z,27.16
2018-10-11T14:54:23.805Z,27.15
2018-10-11T14:55:16.239Z,27.08
2018-10-11T14:56:16.236Z,27.15
2018-10-11T14:57:16.275Z,27.08
2018-10-11T14:58:16.214Z,27.16
2018-10-11T14:59:16.191Z,27.10
2018-10-11T15:00:17.191Z,27.15
2018-10-11T15:01:16.181Z,27.03
2018-10-11T15:02:16.172Z,27.05
2018-10-11T15:03:16.216Z,27.15
2018-10-11T15:04:16.152Z,27.08
2018-10-11T15:05:16.140Z,27.00
2018-10-11T15:06:16.341Z,27.08
2018-10-11T15:07:23.346Z,27.10
2018-10-11T15:08:16.089Z,27.07
2018-10-11T15:09:16.081Z,26.94
2018-10-11T15:10:16.101Z,26.98
2018-10-11T15:11:16.209Z,27.01
2018-10-11T15:12:16.281Z,27.08
2018-10-11T15:13:16.046Z,26.98
2018-10-11T15:14:16.029Z,26.98
2018-10-11T15:15:16.021Z,26.95
2018-10-11T15:16:16.003Z,27.01
2018-10-11T15:17:16.005Z,27.03
2018-10-11T15:18:16.190Z,26.89
2018-10-11T15:19:15.988Z,27.03
2018-10-11T15:20:15.965Z,27.01
2018-10-11T15:21:15.947Z,26.98
2018-10-11T15:22:15.960Z,26.95
2018-10-11T15:23:15.936Z,26.95
2018-10-11T15:24:16.474Z,26.88
2018-10-11T15:25:15.906Z,26.93
2018-10-11T15:26:15.887Z,26.86
2018-10-11T15:27:15.892Z,26.89
2018-10-11T15:28:15.873Z,26.89
2018-10-11T15:29:15.864Z,26.85
2018-10-11T15:30:16.061Z,26.97
2018-10-11T15:31:15.835Z,27.00
2018-10-11T15:32:23.487Z,26.82
2018-10-11T15:33:15.819Z,26.88
2018-10-11T15:34:15.801Z,26.82
2018-10-11T15:35:15.784Z,26.93
2018-10-11T15:36:15.987Z,26.89
2018-10-11T15:37:15.775Z,26.93
2018-10-11T15:38:15.756Z,26.90
2018-10-11T15:39:15.783Z,26.89
2018-10-11T15:40:15.729Z,26.88
2018-10-11T15:41:15.735Z,26.93
2018-10-11T15:42:15.970Z,26.89
2018-10-11T15:43:15.702Z,26.79
2018-10-11T15:44:15.707Z,26.86
2018-10-11T15:45:22.858Z,26.88
2018-10-11T15:46:15.675Z,26.86
2018-10-11T15:47:15.674Z,26.89
2018-10-11T15:48:15.858Z,26.83
2018-10-11T15:49:15.637Z,26.78
2018-10-11T15:50:15.624Z,26.83
2018-10-11T15:51:15.610Z,26.79
2018-10-11T15:52:15.632Z,26.80
2018-10-11T15:53:15.595Z,26.79
2018-10-11T15:54:16.500Z,26.79
2018-10-11T15:55:15.566Z,26.71
2018-10-11T15:56:15.556Z,26.71
2018-10-11T15:57:22.713Z,26.71
2018-10-11T15:58:15.538Z,26.73
2018-10-11T15:59:15.525Z,26.76
2018-10-11T16:00:15.728Z,26.73
2018-10-11T16:01:15.494Z,26.78
2018-10-11T16:02:30.501Z,26.73
2018-10-11T16:03:16.490Z,26.70
2018-10-11T16:04:15.469Z,26.73
2018-10-11T16:05:15.453Z,26.75
2018-10-11T16:06:15.661Z,26.79
2018-10-11T16:07:15.456Z,26.65
2018-10-11T16:08:15.427Z,26.68
2018-10-11T16:09:15.519Z,26.65
2018-10-11T16:10:22.711Z,26.71
2018-10-11T16:11:15.384Z,26.60
2018-10-11T16:12:15.622Z,26.71
2018-10-11T16:13:15.365Z,26.64
2018-10-11T16:14:15.357Z,26.61
2018-10-11T16:15:15.338Z,26.61
2018-10-11T16:16:15.335Z,26.65
2018-10-11T16:17:15.321Z,26.58
2018-10-11T16:18:15.508Z,26.63
2018-10-11T16:19:15.321Z,26.61
2018-10-11T16:20:15.285Z,26.63
2018-10-11T16:21:15.282Z,26.61
2018-10-11T16:22:15.298Z,26.61
2018-10-11T16:23:22.779Z,26.64
2018-10-11T16:24:15.238Z,26.64
2018-10-11T16:25:15.229Z,26.65
2018-10-11T16:26:15.229Z,26.63
2018-10-11T16:27:15.209Z,26.61
2018-10-11T16:28:15.200Z,26.53
2018-10-11T16:29:15.421Z,26.52
2018-10-11T16:30:15.171Z,26.52
2018-10-11T16:31:15.162Z,26.49
2018-10-11T16:32:15.190Z,26.49
2018-10-11T16:33:15.139Z,26.52
2018-10-11T16:34:15.127Z,26.49
2018-10-11T16:35:15.401Z,26.51
2018-10-11T16:36:22.629Z,26.49
2018-10-11T16:37:15.096Z,26.53
2018-10-11T16:38:15.082Z,26.51
2018-10-11T16:39:15.134Z,26.46
2018-10-11T16:40:15.063Z,26.51
2018-10-11T16:41:15.268Z,26.49
2018-10-11T16:42:15.045Z,26.49
2018-10-11T16:43:15.028Z,26.43
2018-10-11T16:44:15.033Z,26.49
2018-10-11T16:45:15.015Z,26.48
2018-10-11T16:46:15.000Z,26.49
2018-10-11T16:47:15.255Z,26.43
2018-10-11T16:48:14.984Z,26.49
2018-10-11T16:49:22.198Z,26.46
2018-10-11T16:50:15.090Z,26.45
2018-10-11T16:51:14.943Z,26.41
2018-10-11T16:52:14.933Z,26.41
2018-10-11T16:53:15.129Z,26.46
2018-10-11T16:54:14.910Z,26.36
2018-10-11T16:55:14.898Z,26.33
2018-10-11T16:56:14.910Z,26.41
2018-10-11T16:57:14.879Z,26.33
2018-10-11T16:58:14.868Z,26.34
2018-10-11T16:59:15.093Z,26.36
2018-10-11T17:00:14.851Z,26.30
2018-10-11T17:01:14.848Z,26.33
2018-10-11T17:02:21.965Z,26.30
2018-10-11T17:03:14.807Z,26.33
2018-10-11T17:04:14.934Z,26.36
2018-10-11T17:05:15.006Z,26.36
2018-10-11T17:06:14.773Z,26.36
2018-10-11T17:07:14.773Z,26.36
2018-10-11T17:08:14.753Z,26.34
2018-10-11T17:09:14.750Z,26.38
2018-10-11T17:10:14.738Z,26.34
2018-10-11T17:11:14.933Z,26.38
2018-10-11T17:12:14.713Z,26.36
2018-10-11T17:13:14.706Z,26.39
2018-10-11T17:14:14.700Z,26.34
2018-10-11T17:15:14.707Z,26.34
2018-10-11T17:16:14.665Z,26.34
2018-10-11T17:17:14.866Z,26.30
2018-10-11T17:18:14.647Z,26.34
2018-10-11T17:19:14.632Z,26.31
2018-10-11T17:20:14.636Z,26.31
2018-10-11T17:21:14.611Z,26.23
2018-10-11T17:22:14.651Z,26.20
2018-10-11T17:23:15.212Z,26.28
2018-10-11T17:24:14.573Z,26.24
2018-10-11T17:25:14.579Z,26.26
2018-10-11T17:26:14.582Z,26.21
2018-10-11T17:27:14.553Z,26.24
2018-10-11T17:28:21.976Z,26.20
2018-10-11T17:29:14.533Z,26.28
2018-10-11T17:30:14.551Z,26.24
2018-10-11T17:31:14.503Z,26.20
2018-10-11T17:32:14.488Z,26.20
2018-10-11T17:33:14.481Z,26.26
2018-10-11T17:34:14.682Z,26.26
2018-10-11T17:35:14.516Z,26.23
2018-10-11T17:36:14.456Z,26.15
2018-10-11T17:37:14.437Z,26.21
2018-10-11T17:38:14.440Z,26.19
2018-10-11T17:39:14.421Z,26.20
2018-10-11T17:40:14.681Z,26.20
2018-10-11T17:41:21.576Z,26.10
2018-10-11T17:42:14.561Z,26.19
2018-10-11T17:43:14.376Z,26.16
2018-10-11T17:44:14.361Z,26.16
2018-10-11T17:45:14.350Z,26.16
2018-10-11T17:46:14.594Z,26.16
2018-10-11T17:47:14.326Z,26.23
2018-10-11T17:48:14.341Z,26.23
2018-10-11T17:49:14.301Z,26.16
2018-10-11T17:50:14.343Z,26.15
2018-10-11T17:51:14.294Z,26.23
2018-10-11T17:52:14.482Z,26.15
2018-10-11T17:53:14.268Z,26.16
2018-10-11T17:54:14.252Z,26.21
2018-10-11T17:55:14.258Z,26.16
2018-10-11T17:56:14.233Z,26.12
2018-10-11T17:57:14.231Z,26.10
2018-10-11T17:58:14.409Z,26.15
2018-10-11T17:59:14.188Z,26.08
2018-10-11T18:00:14.195Z,26.05
2018-10-11T18:01:14.185Z,26.16
2018-10-11T18:02:14.176Z,26.16
2018-10-11T18:03:14.216Z,26.07
2018-10-11T18:04:14.350Z,26.10
2018-10-11T18:05:14.126Z,26.01
2018-10-11T18:06:14.123Z,26.05
2018-10-11T18:07:14.115Z,26.10
2018-10-11T18:08:14.101Z,26.05
2018-10-11T18:09:21.546Z,26.08
2018-10-11T18:10:14.075Z,26.07
2018-10-11T18:11:14.063Z,26.00
2018-10-11T18:12:14.056Z,26.00
2018-10-11T18:13:14.043Z,26.03
2018-10-11T18:14:14.085Z,26.10
2018-10-11T18:15:14.226Z,25.96
2018-10-11T18:16:14.152Z,26.04
2018-10-11T18:17:14.005Z,26.00
2018-10-11T18:18:13.988Z,25.95
2018-10-11T18:19:13.986Z,26.04
2018-10-11T18:20:13.963Z,25.83
2018-10-11T18:21:14.188Z,25.96
2018-10-11T18:22:13.968Z,26.00
2018-10-11T18:23:13.970Z,25.96
2018-10-11T18:24:13.938Z,25.89
2018-10-11T18:25:13.924Z,26.01
2018-10-11T18:26:13.942Z,25.90
2018-10-11T18:27:14.107Z,25.98
2018-10-11T18:28:13.892Z,25.89
2018-10-11T18:29:14.011Z,25.86
2018-10-11T18:30:13.870Z,25.88
2018-10-11T18:31:13.874Z,25.89
2018-10-11T18:32:13.846Z,25.93
2018-10-11T18:33:23.194Z,25.89
2018-10-11T18:34:13.809Z,25.88
2018-10-11T18:35:13.805Z,25.90
2018-10-11T18:36:13.799Z,25.92
2018-10-11T18:37:13.796Z,25.93
2018-10-11T18:38:13.777Z,25.90
2018-10-11T18:39:13.975Z,25.85
2018-10-11T18:40:13.768Z,25.85
2018-10-11T18:41:13.748Z,25.85
2018-10-11T18:42:13.725Z,25.88
2018-10-11T18:43:13.720Z,25.83
2018-10-11T18:44:13.713Z,25.83
2018-10-11T18:45:14.007Z,25.90
2018-10-11T18:46:20.824Z,25.81
2018-10-11T18:47:13.678Z,25.82
2018-10-11T18:48:13.662Z,25.81
2018-10-11T18:49:13.674Z,25.81
2018-10-11T18:50:13.639Z,25.82
2018-10-11T18:51:13.890Z,25.88
2018-10-11T18:52:13.634Z,25.81
2018-10-11T18:53:13.635Z,25.78
2018-10-11T18:54:13.604Z,25.81
2018-10-11T18:55:13.589Z,25.75
2018-10-11T18:56:13.583Z,25.82
2018-10-11T18:57:14.016Z,25.82
2018-10-11T18:58:13.565Z,25.90
2018-10-11T18:59:13.566Z,25.75
2018-10-11T19:00:13.668Z,25.73
2018-10-11T19:01:13.524Z,25.71
2018-10-11T19:02:13.623Z,25.85
2018-10-11T19:03:13.722Z,25.78
2018-10-11T19:04:13.492Z,25.82
2018-10-11T19:05:13.601Z,25.77
2018-10-11T19:06:13.499Z,25.75
2018-10-11T19:07:13.470Z,25.78
2018-10-11T19:08:13.456Z,25.78
2018-10-11T19:09:13.655Z,25.78
2018-10-11T19:10:13.431Z,25.78
2018-10-11T19:11:20.570Z,25.77
2018-10-11T19:12:13.402Z,25.83
2018-10-11T19:13:13.400Z,25.81
2018-10-11T19:14:13.383Z,25.82
2018-10-11T19:15:13.589Z,25.83
2018-10-11T19:16:13.354Z,25.75
2018-10-11T19:17:13.342Z,25.71
2018-10-11T19:18:13.342Z,25.71
2018-10-11T19:19:13.334Z,25.71
2018-10-11T19:20:13.337Z,25.73
2018-10-11T19:21:13.530Z,25.67
2018-10-11T19:22:13.289Z,25.68
2018-10-11T19:23:13.329Z,25.68
2018-10-11T19:24:13.327Z,25.71
2018-10-11T19:25:20.541Z,25.71
2018-10-11T19:26:13.257Z,25.71
2018-10-11T19:27:13.443Z,25.70
2018-10-11T19:28:13.232Z,25.67
2018-10-11T19:29:13.222Z,25.70
2018-10-11T19:30:13.202Z,25.61
2018-10-11T19:31:13.213Z,25.70
2018-10-11T19:32:13.210Z,25.64
2018-10-11T19:33:13.387Z,25.58
2018-10-11T19:34:13.165Z,25.59
2018-10-11T19:35:13.171Z,25.59
2018-10-11T19:36:13.152Z,25.64
2018-10-11T19:37:20.416Z,25.63
2018-10-11T19:38:13.129Z,25.58
2018-10-11T19:39:13.608Z,25.64
2018-10-11T19:40:13.107Z,25.55
2018-10-11T19:41:13.089Z,25.75
2018-10-11T19:42:13.102Z,25.71
2018-10-11T19:43:13.067Z,25.56
2018-10-11T19:44:13.058Z,25.53
2018-10-11T19:45:13.297Z,25.63
2018-10-11T19:46:13.039Z,25.58
2018-10-11T19:47:13.051Z,25.66
2018-10-11T19:48:13.119Z,25.59
2018-10-11T19:49:13.008Z,25.59
2018-10-11T19:50:22.915Z,25.73
2018-10-11T19:51:12.988Z,25.55
2018-10-11T19:52:12.968Z,25.63
2018-10-11T19:53:12.978Z,25.64
2018-10-11T19:54:12.955Z,25.58
2018-10-11T19:55:12.947Z,25.55
2018-10-11T19:56:13.214Z,25.66
2018-10-11T19:57:12.931Z,25.59
2018-10-11T19:58:12.932Z,25.58
2018-10-11T19:59:12.904Z,25.67
2018-10-11T20:00:12.885Z,25.55
2018-10-11T20:01:12.884Z,25.61
2018-10-11T20:02:13.078Z,25.63
2018-10-11T20:03:20.142Z,25.55
2018-10-11T20:04:12.871Z,25.58
2018-10-11T20:05:12.841Z,25.52
2018-10-11T20:06:12.869Z,25.56
2018-10-11T20:07:12.809Z,25.56
2018-10-11T20:08:13.229Z,25.46
2018-10-11T20:09:12.845Z,25.49
2018-10-11T20:10:12.771Z,25.49
2018-10-11T20:11:12.770Z,25.58
2018-10-11T20:12:12.761Z,25.46
2018-10-11T20:13:12.757Z,25.52
2018-10-11T20:14:13.041Z,25.51
2018-10-11T20:15:12.734Z,25.52
2018-10-11T20:16:12.716Z,25.49
2018-10-11T20:17:12.766Z,25.52
2018-10-11T20:18:12.690Z,25.48
2018-10-11T20:19:12.693Z,25.51
2018-10-11T20:20:12.872Z,25.51
2018-10-11T20:21:12.663Z,25.52
2018-10-11T20:22:12.662Z,25.51
2018-10-11T20:23:12.645Z,25.48
2018-10-11T20:24:12.648Z,25.48
2018-10-11T20:25:12.621Z,25.41
2018-10-11T20:26:12.843Z,25.41
2018-10-11T20:27:12.607Z,25.45
2018-10-11T20:28:19.776Z,25.45
2018-10-11T20:29:12.601Z,25.38
2018-10-11T20:30:12.569Z,25.41
2018-10-11T20:31:12.553Z,25.51
2018-10-11T20:32:12.748Z,25.43
2018-10-11T20:33:12.528Z,25.43
2018-10-11T20:34:12.522Z,25.45
2018-10-11T20:35:12.509Z,25.43
2018-10-11T20:36:12.511Z,25.45
2018-10-11T20:37:12.488Z,25.48
2018-10-11T20:38:12.696Z,25.40
2018-10-11T20:39:12.483Z,25.43
2018-10-11T20:40:12.461Z,25.40
2018-10-11T20:41:19.761Z,25.40
2018-10-11T20:42:12.437Z,25.48
2018-10-11T20:43:12.419Z,25.41
2018-10-11T20:44:12.621Z,25.45
2018-10-11T20:45:12.403Z,25.40
2018-10-11T20:46:12.384Z,25.40
2018-10-11T20:47:12.372Z,25.40
2018-10-11T20:48:12.377Z,25.40
2018-10-11T20:49:12.358Z,25.41
2018-10-11T20:50:12.573Z,25.34
2018-10-11T20:51:12.448Z,25.38
2018-10-11T20:52:12.331Z,25.34
2018-10-11T20:53:12.315Z,25.46
2018-10-11T20:54:12.327Z,25.38
2018-10-11T20:55:12.295Z,25.31
2018-10-11T20:56:12.497Z,25.33
2018-10-11T20:57:12.324Z,25.36
2018-10-11T20:58:12.272Z,25.37
2018-10-11T20:59:12.246Z,25.30
2018-10-11T21:00:12.244Z,25.38
2018-10-11T21:01:12.238Z,25.33
2018-10-11T21:02:12.449Z,25.28
2018-10-11T21:03:12.209Z,25.30
2018-10-11T21:04:12.197Z,25.31
2018-10-11T21:05:12.186Z,25.33
2018-10-11T21:06:19.477Z,25.34
2018-10-11T21:07:12.161Z,25.26
2018-10-11T21:08:12.355Z,25.34
2018-10-11T21:09:12.148Z,25.37
2018-10-11T21:10:12.128Z,25.34
2018-10-11T21:11:12.111Z,25.31
2018-10-11T21:12:12.111Z,25.31
2018-10-11T21:13:12.099Z,25.38
2018-10-11T21:14:12.330Z,25.34
2018-10-11T21:15:12.073Z,25.36
2018-10-11T21:16:12.079Z,25.34
2018-10-11T21:17:12.054Z,25.33
2018-10-11T21:18:12.060Z,25.28
2018-10-11T21:19:12.032Z,25.27
2018-10-11T21:20:12.684Z,25.27
2018-10-11T21:21:12.006Z,25.27
2018-10-11T21:22:12.015Z,25.27
2018-10-11T21:23:11.987Z,25.28
2018-10-11T21:24:11.976Z,25.26
2018-10-11T21:25:11.968Z,25.28
2018-10-11T21:26:12.174Z,25.31
2018-10-11T21:27:11.937Z,25.22
2018-10-11T21:28:11.981Z,25.22
2018-10-11T21:29:11.929Z,25.30
2018-10-11T21:30:11.915Z,25.22
2018-10-11T21:31:11.901Z,25.26
2018-10-11T21:32:12.105Z,25.23
2018-10-11T21:33:11.882Z,25.23
2018-10-11T21:34:11.935Z,25.23
2018-10-11T21:35:11.860Z,25.21
2018-10-11T21:36:11.844Z,25.31
2018-10-11T21:37:11.859Z,25.22
2018-10-11T21:38:12.028Z,25.27
2018-10-11T21:39:11.812Z,25.19
2018-10-11T21:40:11.872Z,25.22
2018-10-11T21:41:11.800Z,25.19
2018-10-11T21:42:11.793Z,25.18
2018-10-11T21:43:11.805Z,25.23
2018-10-11T21:44:11.977Z,25.23
2018-10-11T21:45:18.896Z,25.14
2018-10-11T21:46:11.744Z,25.27
2018-10-11T21:47:11.719Z,25.14
2018-10-11T21:48:11.734Z,25.16
2018-10-11T21:49:11.712Z,25.15
2018-10-11T21:50:11.912Z,25.18
2018-10-11T21:51:11.683Z,25.19
2018-10-11T21:52:11.692Z,25.15
2018-10-11T21:53:11.682Z,25.09
2018-10-11T21:54:11.651Z,25.14
2018-10-11T21:55:11.661Z,25.12
2018-10-11T21:56:11.837Z,25.15
2018-10-11T21:57:11.614Z,25.14
2018-10-11T21:58:18.867Z,25.15
2018-10-11T21:59:11.606Z,25.18
2018-10-11T22:00:11.582Z,25.11
2018-10-11T22:01:11.585Z,25.16
2018-10-11T22:02:11.764Z,25.14
2018-10-11T22:03:11.550Z,25.12
2018-10-11T22:04:11.543Z,25.11
2018-10-11T22:05:11.531Z,25.15
2018-10-11T22:06:11.522Z,25.14
2018-10-11T22:07:11.522Z,25.15
2018-10-11T22:08:11.695Z,25.14
2018-10-11T22:09:11.491Z,25.14
2018-10-11T22:10:11.472Z,25.11
2018-10-11T22:11:11.467Z,25.15
2018-10-11T22:12:11.454Z,25.09
2018-10-11T22:13:11.448Z,25.12
2018-10-11T22:14:11.654Z,25.15
2018-10-11T22:15:11.566Z,25.11
2018-10-11T22:16:11.416Z,25.08
2018-10-11T22:17:11.407Z,25.12
2018-10-11T22:18:11.388Z,25.08
2018-10-11T22:19:11.381Z,25.06
2018-10-11T22:20:11.642Z,25.08
2018-10-11T22:21:11.365Z,25.09
2018-10-11T22:22:11.354Z,25.12
2018-10-11T22:23:11.336Z,25.15
2018-10-11T22:24:11.333Z,25.14
2018-10-11T22:25:11.317Z,25.11
2018-10-11T22:26:11.519Z,25.12
2018-10-11T22:27:11.297Z,25.11
2018-10-11T22:28:11.280Z,25.14
2018-10-11T22:29:11.282Z,25.08
2018-10-11T22:30:11.288Z,25.03
2018-10-11T22:31:11.260Z,25.09
2018-10-11T22:32:11.822Z,25.09
2018-10-11T22:33:11.228Z,25.12
2018-10-11T22:34:11.220Z,25.12
2018-10-11T22:35:11.218Z,25.06
2018-10-11T22:37:00.249Z,25.09
2018-10-11T22:38:00.372Z,25.04
2018-10-11T22:39:00.191Z,25.09
2018-10-11T22:40:00.158Z,25.14
2018-10-11T22:41:00.137Z,25.06
2018-10-11T22:42:00.148Z,25.11
2018-10-11T22:43:00.121Z,25.08
2018-10-11T22:44:00.358Z,25.12
2018-10-11T22:45:00.112Z,25.08
2018-10-11T22:46:00.086Z,25.09
2018-10-11T22:47:00.109Z,25.12
2018-10-11T22:48:00.074Z,25.03
2018-10-11T22:49:07.907Z,24.97
2018-10-11T22:50:00.101Z,25.12
2018-10-11T22:51:00.032Z,25.00
2018-10-11T22:52:00.024Z,25.03
2018-10-11T22:53:00.025Z,25.06
2018-10-11T22:54:00.000Z,25.06
2018-10-11T22:55:00.193Z,25.01
2018-10-11T22:55:59.974Z,25.04
2018-10-11T22:56:59.974Z,25.01
2018-10-11T22:57:59.974Z,25.08
2018-10-11T22:58:59.937Z,25.01
2018-10-11T22:59:59.952Z,25.01
2018-10-11T23:01:00.413Z,25.00
2018-10-11T23:01:59.911Z,25.01
2018-10-11T23:02:59.928Z,25.00
2018-10-11T23:03:59.890Z,25.01
2018-10-11T23:04:59.880Z,24.91
2018-10-11T23:05:59.866Z,25.08
2018-10-11T23:07:00.057Z,24.97
2018-10-11T23:07:59.849Z,24.96
2018-10-11T23:08:59.834Z,25.06
2018-10-11T23:09:59.818Z,24.97
2018-10-11T23:10:59.818Z,24.94
2018-10-11T23:11:59.797Z,24.93
2018-10-11T23:13:00.037Z,24.96
2018-10-11T23:13:59.789Z,24.96
2018-10-11T23:15:07.005Z,24.94
2018-10-11T23:15:59.762Z,24.91
2018-10-11T23:16:59.753Z,24.99
2018-10-11T23:17:59.733Z,24.99
2018-10-11T23:18:59.934Z,24.93
2018-10-11T23:19:59.706Z,24.91
2018-10-11T23:20:59.703Z,24.97
2018-10-11T23:21:59.709Z,24.94
2018-10-11T23:22:59.673Z,24.97
2018-10-11T23:23:59.670Z,24.91
2018-10-11T23:24:59.866Z,24.96
2018-10-11T23:25:59.664Z,25.01
2018-10-11T23:26:59.635Z,24.97
2018-10-11T23:27:59.616Z,24.93
2018-10-11T23:28:59.618Z,24.96
2018-10-11T23:29:59.602Z,24.93
2018-10-11T23:30:59.815Z,24.96
2018-10-11T23:31:59.580Z,24.97
2018-10-11T23:32:59.593Z,24.93
2018-10-11T23:33:59.565Z,24.94
2018-10-11T23:34:59.553Z,24.93
2018-10-11T23:35:59.538Z,24.94
2018-10-11T23:36:59.821Z,24.99
2018-10-11T23:37:59.519Z,24.93
2018-10-11T23:38:59.509Z,24.91
2018-10-11T23:39:59.528Z,24.97
2018-10-11T23:40:59.482Z,24.84
2018-10-11T23:41:59.472Z,24.91
2018-10-11T23:42:59.811Z,24.86
2018-10-11T23:43:59.443Z,24.94
2018-10-11T23:44:59.451Z,24.89
2018-10-11T23:45:59.419Z,24.91
2018-10-11T23:46:59.416Z,24.94
2018-10-11T23:47:59.406Z,24.82
2018-10-11T23:48:59.606Z,24.82
2018-10-11T23:49:59.397Z,24.90
2018-10-11T23:50:59.375Z,24.93
2018-10-11T23:51:59.365Z,24.90
2018-10-11T23:53:06.650Z,24.84
2018-10-11T23:53:59.349Z,24.85